Atlanta, Georgia
Current Conditions -  °F | °C
As of 3:52 AM on Saturday 29 Nov 2014 (Local Time) from KATL Reporting Station
Clear Clear  
Wind Chill:   Ceiling: Unl
Heat Index:   Visibility: 10mi
Dew Point: -6°   Wind: 0mph
Humidity: 57%   Direction: NA
Pressure: 30.25"   Gusts: NA
Location:  33.75°N, 84.39°W
Report Text: KATL 290852Z 00000KT 10SM CLR 02/M06 A3025 RMK AO2 SLP247 T00221056 58002
Loading
Personal Weather Stations






























Interactive Weather Map New forecast layout! Learn more

10-Day Weather Forecast

Advertisements
Track Severe Weather on mobile